Time;durP1;ratioP1;P1;durP2;ratioP2;P2;SDS_P1;SDS_P2;PMS_P1;PMS_P2;Temp;Humidity;BMP_temperature;BMP_pressure;BME280_temperature;BME280_humidity;BME280_pressure;Samples;Min_cycle;Max_cycle;Signal;HPM_P1;HPM_P2
2022/07/31 00:00:16;;;;;;;2.70;0.57;;;;;;;23.26;69.53;101266.69;7385260;19;20109;-67
2022/07/31 00:02:43;;;;;;;1.42;0.55;;;;;;;23.27;69.43;101274.50;7384632;19;20347;-66
2022/07/31 00:05:10;;;;;;;1.35;0.70;;;;;;;23.25;69.46;101268.56;7381053;19;20380;-64
2022/07/31 00:07:37;;;;;;;2.38;0.50;;;;;;;23.25;69.55;101273.94;7382325;19;20019;-65
2022/07/31 00:10:05;;;;;;;2.35;0.50;;;;;;;23.25;69.71;101271.25;7384856;19;20356;-64
2022/07/31 00:12:33;;;;;;;1.02;0.52;;;;;;;23.26;69.58;101266.69;7384665;19;20023;-66
2022/07/31 00:15:05;;;;;;;2.22;1.15;;;;;;;23.27;71.07;101268.31;7381775;19;20359;-67
2022/07/31 00:17:32;;;;;;;1.42;0.60;;;;;;;23.24;69.51;101266.91;7384744;19;20010;-65
2022/07/31 00:19:59;;;;;;;1.00;0.52;;;;;;;23.18;69.45;101267.81;7380686;19;20014;-69
2022/07/31 00:22:26;;;;;;;3.20;0.77;;;;;;;23.13;69.88;101269.53;7382962;19;20014;-65
2022/07/31 00:24:53;;;;;;;1.42;0.63;;;;;;;23.10;70.43;101262.75;7381404;19;20367;-66
2022/07/31 00:27:20;;;;;;;2.15;0.50;;;;;;;23.10;70.45;101262.75;7383721;19;20003;-63
2022/07/31 00:29:47;;;;;;;1.85;0.60;;;;;;;23.09;70.22;101258.41;7389218;19;20463;-66
2022/07/31 00:32:14;;;;;;;1.08;0.60;;;;;;;23.10;70.28;101261.94;7391587;19;20013;-64
2022/07/31 00:34:41;;;;;;;1.63;0.70;;;;;;;23.11;71.20;101264.38;7387615;19;20482;-64
2022/07/31 00:37:08;;;;;;;2.33;0.60;;;;;;;23.11;70.41;101260.88;7390996;19;20094;-65
2022/07/31 00:39:35;;;;;;;2.38;0.82;;;;;;;23.12;70.53;101266.00;7388562;19;20090;-64
2022/07/31 00:42:19;;;;;;;1.20;0.50;;;;;;;23.06;70.66;101263.44;7391541;19;20010;-64
2022/07/31 00:44:47;;;;;;;1.48;0.50;;;;;;;23.02;70.75;101261.16;7389986;19;20014;-64
2022/07/31 00:47:14;;;;;;;2.15;0.60;;;;;;;23.00;70.90;101257.09;7391836;19;20014;-66
2022/07/31 00:49:42;;;;;;;1.70;0.57;;;;;;;22.99;70.87;101252.75;7386557;19;20601;-66
2022/07/31 00:52:09;;;;;;;1.95;0.75;;;;;;;23.02;71.94;101254.97;7387490;19;20451;-65
2022/07/31 00:54:36;;;;;;;1.10;0.60;;;;;;;23.05;71.58;101248.34;7388963;19;20365;-65
2022/07/31 00:57:04;;;;;;;1.13;0.40;;;;;;;23.05;71.20;101251.03;7389793;19;20006;-66
2022/07/31 00:59:31;;;;;;;1.50;0.50;;;;;;;23.07;71.32;101251.63;7390007;19;20035;-65
2022/07/31 01:01:59;;;;;;;1.45;0.40;;;;;;;23.07;71.30;101256.97;7390334;19;20506;-62
2022/07/31 01:04:26;;;;;;;2.65;0.45;;;;;;;23.03;71.08;101254.75;7385486;19;20046;-62
2022/07/31 01:06:56;;;;;;;1.08;0.43;;;;;;;22.99;70.93;101242.00;7390496;19;20364;-62
2022/07/31 01:09:23;;;;;;;0.73;0.40;;;;;;;22.96;71.78;101243.25;7388854;19;20019;-62
2022/07/31 01:11:59;;;;;;;2.47;0.50;;;;;;;22.96;72.13;101235.22;7390517;19;20037;-64
2022/07/31 01:14:30;;;;;;;2.17;0.43;;;;;;;22.98;71.75;101219.72;7386860;19;20018;-65
2022/07/31 01:16:59;;;;;;;1.52;0.40;;;;;;;22.99;71.52;101229.41;7389238;19;20126;-66
2022/07/31 01:19:47;;;;;;;1.48;0.50;;;;;;;22.97;71.89;101226.13;7386337;19;20019;-64
2022/07/31 01:22:40;;;;;;;1.55;0.40;;;;;;;22.95;71.67;101238.97;7389215;19;20337;-65
2022/07/31 01:25:25;;;;;;;1.08;0.40;;;;;;;22.91;71.71;101229.69;7387090;19;20022;-65
2022/07/31 01:28:06;;;;;;;2.78;0.40;;;;;;;22.90;72.31;101228.06;7388124;19;20491;-65
2022/07/31 01:30:42;;;;;;;1.70;0.60;;;;;;;22.90;72.81;101228.06;7383885;19;20379;-66
2022/07/31 01:33:13;;;;;;;1.77;0.50;;;;;;;22.93;71.94;101227.63;7390625;19;20049;-65
2022/07/31 01:35:43;;;;;;;2.28;0.32;;;;;;;22.89;72.31;101226.44;7386263;19;21193;-65
2022/07/31 01:38:16;;;;;;;1.77;0.50;;;;;;;22.87;72.19;101231.19;7388148;19;20042;-66
2022/07/31 01:40:47;;;;;;;1.10;0.40;;;;;;;22.85;72.15;101229.78;7381024;19;20028;-62
2022/07/31 01:43:28;;;;;;;1.17;0.70;;;;;;;22.78;72.42;101218.28;7388999;19;20070;-62
2022/07/31 01:45:58;;;;;;;1.20;0.40;;;;;;;22.77;72.71;101213.97;7386534;19;20014;-63
2022/07/31 01:48:26;;;;;;;1.52;0.70;;;;;;;22.78;73.36;101221.81;7384647;19;20028;-63
2022/07/31 01:50:56;;;;;;;2.88;0.50;;;;;;;22.80;73.87;101214.34;7386427;19;20002;-61
2022/07/31 01:53:25;;;;;;;1.10;0.45;;;;;;;22.82;73.19;101216.78;7387676;19;20034;-62
2022/07/31 01:55:54;;;;;;;0.80;0.40;;;;;;;22.81;72.62;101213.28;7387878;19;20346;-61
2022/07/31 01:58:34;;;;;;;3.55;0.40;;;;;;;22.80;72.68;101210.84;7387602;19;20028;-63
2022/07/31 02:01:04;;;;;;;2.03;0.30;;;;;;;22.80;72.87;101213.53;7387806;19;20014;-61
2022/07/31 02:03:33;;;;;;;1.70;0.50;;;;;;;22.82;72.63;101211.44;7383294;19;20403;-61
2022/07/31 02:06:16;;;;;;;1.25;0.40;;;;;;;22.80;72.83;101205.47;7384257;19;20356;-63
2022/07/31 02:08:50;;;;;;;1.55;0.40;;;;;;;22.78;73.42;101194.13;7387781;19;20015;-62
2022/07/31 02:11:18;;;;;;;1.65;0.50;;;;;;;22.78;73.06;101207.56;7387068;19;20006;-63
2022/07/31 02:13:50;;;;;;;1.58;0.50;;;;;;;22.80;73.38;101202.81;7388088;19;20014;-63
2022/07/31 02:16:18;;;;;;;2.28;0.40;;;;;;;22.75;73.78;101203.47;7387194;19;20010;-65
2022/07/31 02:18:51;;;;;;;1.88;0.40;;;;;;;22.75;74.02;101200.78;7385992;19;20014;-65
2022/07/31 02:21:18;;;;;;;0.80;0.40;;;;;;;22.79;74.24;101207.34;7386829;19;20018;-65
2022/07/31 02:23:45;;;;;;;0.90;0.40;;;;;;;22.80;74.00;101219.72;7387170;19;20015;-65
2022/07/31 02:26:14;;;;;;;1.25;0.57;;;;;;;22.77;73.81;101201.38;7386946;19;20017;-66
2022/07/31 02:28:43;;;;;;;1.90;0.40;;;;;;;22.78;74.08;101205.69;7386358;19;20025;-65
2022/07/31 02:31:13;;;;;;;1.88;0.50;;;;;;;22.78;73.91;101200.31;7388529;19;20018;-65
2022/07/31 02:33:44;;;;;;;1.30;0.35;;;;;;;22.78;75.00;101188.78;7382423;19;20017;-65
2022/07/31 02:36:13;;;;;;;1.63;0.45;;;;;;;22.78;74.96;101186.91;7386109;19;20011;-64
2022/07/31 02:38:42;;;;;;;1.83;0.40;;;;;;;22.76;75.84;101194.34;7384422;19;20359;-65
2022/07/31 02:41:11;;;;;;;1.75;0.45;;;;;;;22.73;76.33;101186.75;7385050;19;20551;-66
2022/07/31 02:43:38;;;;;;;1.42;0.50;;;;;;;22.71;76.90;101180.78;7385801;19;20367;-66
2022/07/31 02:46:07;;;;;;;1.73;0.60;;;;;;;22.67;77.34;101179.56;7385273;19;20014;-65
2022/07/31 02:48:36;;;;;;;4.03;0.80;;;;;;;22.66;77.88;101177.09;7384610;19;21459;-65
2022/07/31 02:51:03;;;;;;;2.35;0.55;;;;;;;22.63;77.98;101174.88;7384723;19;20019;-65
2022/07/31 02:53:33;;;;;;;2.28;0.80;;;;;;;22.60;77.89;101173.47;7384428;19;20062;-64
2022/07/31 02:56:03;;;;;;;2.63;0.60;;;;;;;22.52;78.36;101166.53;7384624;19;20035;-64
2022/07/31 02:58:30;;;;;;;4.78;0.73;;;;;;;22.47;78.20;101168.22;7384870;19;20026;-65
2022/07/31 03:01:02;;;;;;;2.67;0.70;;;;;;;22.39;78.53;101166.69;7386085;19;20486;-65
2022/07/31 03:03:29;;;;;;;10.13;6.20;;;;;;;22.40;78.92;101167.50;7384654;19;20010;-61
2022/07/31 03:05:56;;;;;;;3.65;0.80;;;;;;;22.40;79.00;101173.66;7384082;19;20516;-62
2022/07/31 03:08:23;;;;;;;4.10;0.70;;;;;;;22.40;78.52;101165.59;7386011;19;20031;-67
2022/07/31 03:10:50;;;;;;;4.05;0.77;;;;;;;22.41;78.44;101175.31;7383642;19;20090;-65
2022/07/31 03:13:21;;;;;;;3.15;1.20;;;;;;;22.41;78.32;101163.75;7385671;19;20010;-62
2022/07/31 03:15:49;;;;;;;3.40;0.88;;;;;;;22.40;78.11;101154.88;7385934;19;20021;-62
2022/07/31 03:18:20;;;;;;;2.22;0.70;;;;;;;22.40;78.14;101160.25;7386816;19;20027;-62
2022/07/31 03:20:50;;;;;;;2.83;0.73;;;;;;;22.39;78.37;101160.50;7381257;19;20010;-63
2022/07/31 03:23:20;;;;;;;2.38;0.70;;;;;;;22.38;78.83;101159.66;7385485;19;20015;-62
2022/07/31 03:25:51;;;;;;;3.65;0.80;;;;;;;22.41;78.41;101166.44;7384217;19;20018;-61
2022/07/31 03:28:18;;;;;;;4.22;0.60;;;;;;;22.38;77.89;101156.97;7384112;19;20022;-62
2022/07/31 03:30:49;;;;;;;2.25;0.50;;;;;;;22.38;77.82;101156.16;7384783;19;20014;-62
2022/07/31 03:33:16;;;;;;;3.70;0.70;;;;;;;22.37;77.61;101147.28;7385985;19;20018;-62
2022/07/31 03:35:44;;;;;;;4.38;2.60;;;;;;;22.39;78.06;101149.75;7380041;19;20333;-61
2022/07/31 03:38:11;;;;;;;3.22;0.73;;;;;;;22.38;77.81;101158.84;7384216;19;20016;-61
2022/07/31 03:40:58;;;;;;;4.20;0.75;;;;;;;22.36;77.67;101152.88;7384365;19;20049;-61
2022/07/31 03:43:30;;;;;;;2.25;0.60;;;;;;;22.36;78.15;101153.69;7382002;19;20014;-62
2022/07/31 03:46:16;;;;;;;2.30;0.60;;;;;;;22.35;78.15;101152.03;7383948;19;20017;-62
2022/07/31 03:48:43;;;;;;;3.20;0.80;;;;;;;22.33;77.57;101151.47;7383309;19;20031;-61
2022/07/31 03:51:12;;;;;;;2.08;0.65;;;;;;;22.32;78.07;101149.81;7383491;19;20018;-61
2022/07/31 03:53:40;;;;;;;2.38;0.75;;;;;;;22.30;77.83;101153.78;7384430;19;20030;-66
2022/07/31 03:56:08;;;;;;;2.13;0.75;;;;;;;22.30;77.64;101151.09;7384048;19;20106;-61
2022/07/31 03:58:36;;;;;;;1.73;0.70;;;;;;;22.28;77.75;101156.69;7384113;19;20018;-63
2022/07/31 04:01:05;;;;;;;2.70;0.60;;;;;;;22.27;77.67;101152.34;7383316;19;20527;-63
2022/07/31 04:03:37;;;;;;;2.15;0.70;;;;;;;22.26;77.90;101158.75;7380663;19;20353;-62
2022/07/31 04:06:04;;;;;;;4.22;0.85;;;;;;;22.26;78.17;101141.84;7381812;19;20791;-63
2022/07/31 04:08:32;;;;;;;4.53;0.70;;;;;;;22.27;78.01;101135.44;7384321;19;20479;-61
2022/07/31 04:10:59;;;;;;;3.22;0.80;;;;;;;22.31;78.71;101134.75;7383826;19;20014;-62
2022/07/31 04:13:27;;;;;;;2.38;0.75;;;;;;;22.31;77.91;101142.81;7385333;19;20474;-62
2022/07/31 04:15:54;;;;;;;1.73;0.63;;;;;;;22.30;78.17;101130.44;7384258;19;20078;-63
2022/07/31 04:18:20;;;;;;;3.40;0.60;;;;;;;22.30;77.96;101137.69;7385781;19;20353;-62
2022/07/31 04:20:47;;;;;;;1.70;0.60;;;;;;;22.31;77.83;101129.41;7380581;19;20014;-62
2022/07/31 04:23:15;;;;;;;3.80;0.70;;;;;;;22.31;77.65;101137.44;7384548;19;20011;-62
2022/07/31 04:25:42;;;;;;;1.73;0.70;;;;;;;22.30;77.99;101138.47;7381897;19;20081;-62
2022/07/31 04:28:09;;;;;;;3.25;0.85;;;;;;;22.30;78.05;101138.47;7384989;19;20011;-61
2022/07/31 04:30:37;;;;;;;3.70;0.70;;;;;;;22.29;77.71;101134.19;7384157;19;20474;-62
2022/07/31 04:33:04;;;;;;;3.38;0.70;;;;;;;22.27;77.46;101135.44;7384849;19;20051;-62
2022/07/31 04:35:31;;;;;;;1.58;0.60;;;;;;;22.23;77.58;101128.88;7380804;19;20719;-63
2022/07/31 04:37:58;;;;;;;1.75;0.70;;;;;;;22.20;77.52;101132.81;7383562;19;20002;-65
2022/07/31 04:40:26;;;;;;;1.67;0.63;;;;;;;22.20;78.09;101126.66;7381545;19;20030;-62
2022/07/31 04:42:54;;;;;;;2.58;0.77;;;;;;;22.22;78.00;101130.75;7382303;19;20014;-63
2022/07/31 04:45:21;;;;;;;4.40;1.25;;;;;;;22.23;78.92;101135.06;7382452;19;20043;-62
2022/07/31 04:47:48;;;;;;;2.38;0.80;;;;;;;22.23;78.35;101132.38;7384340;19;20123;-64
2022/07/31 04:50:15;;;;;;;1.33;0.57;;;;;;;22.23;78.00;101140.44;7378253;19;20524;-63
2022/07/31 04:52:42;;;;;;;2.22;0.80;;;;;;;22.17;78.10;101126.03;7383323;19;20038;-62
2022/07/31 04:55:09;;;;;;;2.05;0.65;;;;;;;22.18;77.50;101133.06;7381531;19;20051;-62
2022/07/31 04:57:37;;;;;;;3.67;0.75;;;;;;;22.18;77.89;101134.91;7381544;19;20150;-62
2022/07/31 05:00:05;;;;;;;3.70;0.70;;;;;;;22.18;77.67;101145.63;7382689;19;20038;-62
2022/07/31 05:02:32;;;;;;;3.13;1.02;;;;;;;22.20;77.63;101135.50;7382307;19;20082;-62
2022/07/31 05:04:59;;;;;;;1.65;0.70;;;;;;;22.21;77.52;101139.00;7379369;19;20516;-62
2022/07/31 05:07:27;;;;;;;3.38;0.60;;;;;;;22.21;77.77;101136.31;7379617;19;20573;-61
2022/07/31 05:09:55;;;;;;;3.08;0.93;;;;;;;22.21;77.81;101133.63;7382239;19;20388;-62
2022/07/31 05:12:22;;;;;;;3.13;0.80;;;;;;;22.20;77.71;101129.34;7383168;19;20090;-61
2022/07/31 05:14:49;;;;;;;2.75;0.63;;;;;;;22.16;77.53;101129.75;7386231;19;20015;-61
2022/07/31 05:17:16;;;;;;;1.92;0.70;;;;;;;22.19;78.15;101141.91;7390131;19;20024;-61
2022/07/31 05:19:43;;;;;;;3.75;0.98;;;;;;;22.21;78.01;101139.00;7385394;19;20073;-61
2022/07/31 05:22:11;;;;;;;2.22;1.05;;;;;;;22.16;77.74;101137.81;7389708;19;20027;-61
2022/07/31 05:24:41;;;;;;;2.25;0.70;;;;;;;22.10;77.97;101144.03;7388714;19;20024;-61
2022/07/31 05:27:09;;;;;;;2.97;0.90;;;;;;;22.08;78.02;101131.91;7387293;19;20380;-62
2022/07/31 05:29:36;;;;;;;2.45;0.82;;;;;;;22.09;78.19;101123.66;7389308;19;20440;-64
2022/07/31 05:32:03;;;;;;;3.95;1.00;;;;;;;22.07;77.98;101122.22;7387688;19;20019;-64
2022/07/31 05:34:30;;;;;;;1.63;0.80;;;;;;;22.08;78.13;101129.25;7386244;19;20082;-64
2022/07/31 05:36:59;;;;;;;1.95;0.60;;;;;;;22.07;78.50;101123.06;7386508;19;20014;-65
2022/07/31 05:39:27;;;;;;;2.40;1.08;;;;;;;22.09;78.87;101122.84;7388319;19;20274;-64
2022/07/31 05:41:54;;;;;;;2.50;0.80;;;;;;;22.12;78.92;101133.94;7388621;19;20439;-65
2022/07/31 05:44:21;;;;;;;2.42;1.10;;;;;;;22.16;78.31;101134.31;7389445;19;20021;-64
2022/07/31 05:46:48;;;;;;;3.03;0.70;;;;;;;22.15;78.18;101121.94;7387265;19;20047;-65
2022/07/31 05:49:14;;;;;;;1.73;1.02;;;;;;;22.15;77.95;101122.75;7382890;19;20011;-65
2022/07/31 05:51:43;;;;;;;3.00;0.90;;;;;;;22.18;78.43;101121.50;7388133;19;20007;-63
2022/07/31 05:54:10;;;;;;;1.30;0.60;;;;;;;22.19;77.81;101117.78;7386238;19;20014;-63
2022/07/31 05:56:37;;;;;;;3.47;3.05;;;;;;;22.21;78.05;101120.22;7388685;19;20014;-66
2022/07/31 05:59:12;;;;;;;1.95;0.60;;;;;;;22.21;78.41;101122.91;7387988;19;20090;-65
2022/07/31 06:01:39;;;;;;;2.28;0.70;;;;;;;22.19;78.26;101120.47;7387996;19;20018;-62
2022/07/31 06:04:06;;;;;;;3.17;0.90;;;;;;;22.15;78.19;101121.94;7385238;19;20011;-65
2022/07/31 06:06:33;;;;;;;2.63;0.80;;;;;;;22.12;78.45;101122.38;7386132;19;20110;-64
2022/07/31 06:08:59;;;;;;;1.88;0.90;;;;;;;22.14;78.24;101120.31;7387181;19;20066;-65
2022/07/31 06:11:30;;;;;;;1.88;0.90;;;;;;;22.15;78.19;101113.88;7385895;19;20015;-65
2022/07/31 06:13:57;;;;;;;2.58;0.70;;;;;;;22.18;78.16;101116.97;7387156;19;20035;-66
2022/07/31 06:16:24;;;;;;;3.60;1.63;;;;;;;22.22;78.96;101117.34;7384358;19;20916;-66
2022/07/31 06:18:51;;;;;;;2.67;1.00;;;;;;;22.23;78.54;101115.47;7384062;19;20010;-65
2022/07/31 06:21:18;;;;;;;2.33;0.90;;;;;;;22.25;78.26;101116.09;7384378;19;20078;-65
2022/07/31 06:23:43;;;;;;;2.60;0.77;;;;;;;22.27;77.88;101114.81;7386113;19;20389;-65
2022/07/31 06:26:11;;;;;;;3.53;0.80;;;;;;;22.28;77.89;101121.00;7384008;19;20037;-66
2022/07/31 06:28:38;;;;;;;2.13;0.60;;;;;;;22.31;77.77;101117.84;7385898;19;20494;-66
2022/07/31 06:31:19;;;;;;;1.60;0.65;;;;;;;22.34;77.52;101115.56;7387678;19;20015;-64
2022/07/31 06:33:47;;;;;;;1.10;0.50;;;;;;;22.36;77.81;101110.78;7385350;19;20014;-64
2022/07/31 06:36:16;;;;;;;2.47;0.82;;;;;;;22.40;77.60;101111.97;7387957;19;20066;-61
2022/07/31 06:38:43;;;;;;;3.28;0.68;;;;;;;22.42;77.47;101114.44;7386179;19;20403;-63
2022/07/31 06:41:43;;;;;;;1.67;0.60;;;;;;;22.44;77.05;101123.09;7386621;19;20408;-61
2022/07/31 06:43:57;;;;;;;2.20;0.60;;;;;;;22.45;77.13;101114.78;7386764;19;20006;-61
2022/07/31 06:46:24;;;;;;;3.95;0.70;;;;;;;22.48;76.79;101130.47;7383288;19;20021;-61
2022/07/31 06:48:51;;;;;;;1.33;0.50;;;;;;;22.50;76.95;101122.19;7384049;19;20455;-63
2022/07/31 06:51:18;;;;;;;1.17;0.50;;;;;;;22.50;77.01;101135.63;7387043;19;20434;-64
2022/07/31 06:54:02;;;;;;;2.45;1.00;;;;;;;22.50;77.06;101123.00;7385804;19;20025;-66
2022/07/31 06:56:29;;;;;;;3.33;0.65;;;;;;;22.49;76.87;101120.56;7385475;19;20015;-64
2022/07/31 06:58:56;;;;;;;2.28;0.60;;;;;;;22.47;76.98;101115.41;7386821;19;20022;-64
2022/07/31 07:01:23;;;;;;;3.25;0.73;;;;;;;22.46;76.49;101111.06;7383634;19;20015;-65
2022/07/31 07:03:51;;;;;;;1.42;0.73;;;;;;;22.48;76.82;101117.06;7381555;19;20568;-65
2022/07/31 07:06:18;;;;;;;1.30;0.60;;;;;;;22.49;76.80;101120.56;7381202;19;20018;-63
2022/07/31 07:08:45;;;;;;;2.15;0.70;;;;;;;22.51;76.59;101123.81;7383159;19;20017;-64
2022/07/31 07:11:13;;;;;;;2.03;0.77;;;;;;;22.51;76.76;101118.44;7383247;19;20073;-65
2022/07/31 07:13:40;;;;;;;1.67;0.60;;;;;;;22.53;76.39;101119.06;7386043;19;20770;-64
2022/07/31 07:16:13;;;;;;;2.70;0.60;;;;;;;22.52;76.21;101112.06;7385698;19;20360;-66
2022/07/31 07:18:40;;;;;;;1.83;0.63;;;;;;;22.52;76.63;101123.59;7382155;19;20011;-65
2022/07/31 07:21:07;;;;;;;1.55;0.50;;;;;;;22.56;76.30;101118.59;7385335;19;20366;-66
2022/07/31 07:23:34;;;;;;;1.95;0.50;;;;;;;22.59;76.38;101121.66;7383508;19;20336;-65
2022/07/31 07:26:01;;;;;;;1.30;0.50;;;;;;;22.63;76.26;101126.56;7384608;19;20024;-68
2022/07/31 07:28:29;;;;;;;2.78;0.60;;;;;;;22.59;76.56;101126.22;7384324;19;20093;-66
2022/07/31 07:30:57;;;;;;;2.90;0.50;;;;;;;22.61;76.35;101113.38;7385825;19;20031;-64
2022/07/31 07:33:24;;;;;;;3.78;0.60;;;;;;;22.65;76.34;101117.28;7383542;19;20032;-65
2022/07/31 07:36:08;;;;;;;1.75;0.70;;;;;;;22.71;76.13;101118.25;7381916;19;20495;-63
2022/07/31 07:38:49;;;;;;;3.42;0.60;;;;;;;22.74;76.07;101115.94;7383989;19;20014;-64
2022/07/31 07:41:16;;;;;;;1.42;0.57;;;;;;;22.75;75.50;101122.13;7383874;19;20031;-67
2022/07/31 07:43:44;;;;;;;1.65;0.63;;;;;;;22.70;75.79;101112.06;7383750;19;20463;-66
2022/07/31 07:46:17;;;;;;;1.38;0.60;;;;;;;22.68;76.27;101116.00;7382335;19;20047;-62
2022/07/31 07:48:44;;;;;;;1.58;0.52;;;;;;;22.69;75.64;101106.91;7382532;19;20018;-63
2022/07/31 07:51:11;;;;;;;2.42;0.60;;;;;;;22.69;76.07;101118.47;7382201;19;20017;-66
2022/07/31 07:53:39;;;;;;;1.50;0.50;;;;;;;22.69;75.79;101121.13;7383694;19;20033;-66
2022/07/31 07:56:06;;;;;;;1.02;0.50;;;;;;;22.69;75.64;101123.00;7382954;19;20456;-63
2022/07/31 07:58:33;;;;;;;1.30;0.50;;;;;;;22.69;75.55;101123.00;7383501;19;20018;-62
2022/07/31 08:01:00;;;;;;;1.55;0.50;;;;;;;22.68;75.43;101113.31;7384092;19;20780;-62
2022/07/31 08:03:27;;;;;;;1.65;0.60;;;;;;;22.66;75.59;101118.06;7382644;19;20017;-62
2022/07/31 08:06:14;;;;;;;1.73;0.52;;;;;;;22.60;76.06;101111.75;7381172;19;20018;-61
2022/07/31 08:08:41;;;;;;;1.08;0.60;;;;;;;22.60;76.57;101107.19;7382360;19;20024;-61
2022/07/31 08:11:08;;;;;;;1.65;0.60;;;;;;;22.63;76.33;101113.97;7383544;19;20074;-62
2022/07/31 08:13:35;;;;;;;1.13;0.60;;;;;;;22.65;75.82;101111.91;7384527;19;20422;-61
2022/07/31 08:16:04;;;;;;;1.52;0.50;;;;;;;22.67;76.12;101111.66;7383367;19;20019;-64
2022/07/31 08:18:31;;;;;;;1.88;0.77;;;;;;;22.69;75.70;101110.41;7380903;19;20019;-65
2022/07/31 08:20:58;;;;;;;1.45;0.82;;;;;;;22.71;75.34;101099.47;7381707;19;20011;-64
2022/07/31 08:23:25;;;;;;;3.45;0.50;;;;;;;22.73;75.48;101102.75;7381910;19;20014;-65
2022/07/31 08:25:52;;;;;;;1.33;0.40;;;;;;;22.73;75.12;101110.81;7382034;19;20014;-65
2022/07/31 08:28:24;;;;;;;2.00;0.50;;;;;;;22.74;75.43;101097.16;7380121;19;20475;-66
2022/07/31 08:30:51;;;;;;;5.68;0.57;;;;;;;22.75;74.96;101114.09;7382917;19;20340;-64
2022/07/31 08:33:18;;;;;;;2.42;0.40;;;;;;;22.75;74.24;101106.88;7382854;19;20018;-65
2022/07/31 08:35:45;;;;;;;1.30;0.60;;;;;;;22.79;74.53;101117.94;7379211;19;20010;-65
2022/07/31 08:38:17;;;;;;;1.08;0.50;;;;;;;22.80;74.11;101108.88;7381495;19;20011;-64
2022/07/31 08:40:45;;;;;;;2.00;0.50;;;;;;;22.83;74.61;101119.13;7379949;19;20014;-64
2022/07/31 08:43:13;;;;;;;2.08;0.40;;;;;;;22.83;73.90;101114.59;7382275;19;20010;-65
2022/07/31 08:46:03;;;;;;;1.52;0.40;;;;;;;22.82;73.61;101120.16;7383363;19;20019;-65
2022/07/31 08:48:32;;;;;;;2.83;0.50;;;;;;;22.84;74.65;101124.28;7378724;19;20025;-64
2022/07/31 08:51:02;;;;;;;1.15;0.40;;;;;;;22.88;74.45;101122.78;7386872;19;20020;-65
2022/07/31 08:53:34;;;;;;;0.80;0.40;;;;;;;22.91;74.22;101119.63;7389752;19;20070;-65
2022/07/31 08:56:04;;;;;;;2.75;0.65;;;;;;;22.93;74.10;101116.72;7387102;19;20020;-65
2022/07/31 08:58:31;;;;;;;2.03;0.40;;;;;;;22.94;73.72;101121.06;7386714;19;20018;-64
2022/07/31 09:01:04;;;;;;;0.77;0.40;;;;;;;22.95;73.62;101122.69;7388231;19;20471;-66
2022/07/31 09:03:33;;;;;;;2.08;0.50;;;;;;;22.94;73.40;101127.25;7388624;19;20610;-65
2022/07/31 09:06:00;;;;;;;1.25;0.40;;;;;;;22.96;73.85;101127.00;7387919;19;20437;-65
2022/07/31 09:08:31;;;;;;;1.63;0.40;;;;;;;22.97;73.66;101125.97;7385354;19;20034;-65
2022/07/31 09:11:10;;;;;;;2.22;0.40;;;;;;;23.00;73.72;101131.72;7389239;19;20021;-65
2022/07/31 09:13:37;;;;;;;1.33;0.40;;;;;;;23.02;73.62;101120.72;7389618;19;20070;-61
2022/07/31 09:16:04;;;;;;;1.00;0.40;;;;;;;23.03;73.50;101128.56;7386787;19;20090;-62
2022/07/31 09:18:32;;;;;;;1.63;0.47;;;;;;;23.05;73.25;101122.16;7388850;19;20398;-66
2022/07/31 09:21:01;;;;;;;1.30;0.40;;;;;;;23.06;72.88;101123.81;7387130;19;20030;-66
2022/07/31 09:23:29;;;;;;;1.27;0.43;;;;;;;23.08;72.80;101122.50;7387458;19;20010;-66
2022/07/31 09:26:02;;;;;;;1.83;0.40;;;;;;;23.08;73.01;101119.00;7388103;19;20020;-69
2022/07/31 09:28:40;;;;;;;1.55;0.40;;;;;;;23.10;72.84;101117.75;7386032;19;20534;-64
2022/07/31 09:31:08;;;;;;;1.17;0.40;;;;;;;23.10;72.74;101119.59;7389106;19;20480;-65
2022/07/31 09:33:38;;;;;;;1.17;0.40;;;;;;;23.07;72.47;101118.19;7384128;19;20010;-70
2022/07/31 09:36:11;;;;;;;1.63;0.50;;;;;;;23.01;72.83;101135.19;7386898;19;20022;-61
2022/07/31 09:38:41;;;;;;;2.20;0.50;;;;;;;22.99;73.18;101129.25;7387536;19;20010;-62
2022/07/31 09:41:19;;;;;;;1.48;0.50;;;;;;;22.98;72.91;101127.59;7386442;19;20023;-62
2022/07/31 09:44:06;;;;;;;2.17;0.60;;;;;;;22.97;73.05;101124.09;7387313;19;20015;-62
2022/07/31 09:46:44;;;;;;;1.23;0.52;;;;;;;23.00;73.62;101120.97;7387673;19;20056;-63
2022/07/31 09:49:13;;;;;;;3.15;0.60;;;;;;;23.06;73.79;101121.91;7386049;19;20380;-62
2022/07/31 09:51:42;;;;;;;1.90;0.60;;;;;;;23.07;72.88;101128.91;7388020;19;20486;-61
2022/07/31 09:54:22;;;;;;;0.70;0.40;;;;;;;23.08;73.00;101117.13;7386512;19;20029;-61
2022/07/31 09:56:49;;;;;;;1.17;0.43;;;;;;;23.08;73.05;101125.19;7387921;19;20071;-62
2022/07/31 09:59:16;;;;;;;2.13;0.60;;;;;;;23.08;73.04;101130.56;7387318;19;20010;-62
2022/07/31 10:01:47;;;;;;;1.67;0.50;;;;;;;23.03;72.92;101127.75;7386770;19;20014;-62
2022/07/31 10:04:20;;;;;;;1.05;0.50;;;;;;;23.01;73.89;101133.34;7381703;19;20379;-62
2022/07/31 10:06:48;;;;;;;;;;;;;;;23.06;74.21;101127.28;7387886;19;20044;-64
2022/07/31 10:09:18;;;;;;;4.20;0.40;;;;;;;23.04;73.25;101115.97;7386576;19;19925;-63
2022/07/31 10:11:48;;;;;;;1.20;0.40;;;;;;;23.08;73.33;101116.31;7387725;19;20021;-62
2022/07/31 10:14:30;;;;;;;3.60;0.50;;;;;;;23.11;72.97;101115.88;7385617;19;20202;-62
2022/07/31 10:17:00;;;;;;;2.75;0.50;;;;;;;23.14;72.52;101113.56;7386793;19;20031;-62
2022/07/31 10:19:33;;;;;;;3.13;0.30;;;;;;;23.19;72.43;101123.59;7383554;19;20017;-62
2022/07/31 10:22:03;;;;;;;2.60;0.50;;;;;;;23.21;72.12;101122.31;7385605;19;20125;-65
2022/07/31 10:24:32;;;;;;;1.80;0.50;;;;;;;23.24;72.41;101119.19;7385458;19;20014;-65
2022/07/31 10:26:59;;;;;;;1.80;0.60;;;;;;;23.28;72.41;101117.69;7384569;19;20029;-65
2022/07/31 10:29:36;;;;;;;3.15;0.50;;;;;;;23.33;72.46;101114.31;7386869;19;20010;-65
2022/07/31 10:32:04;;;;;;;2.35;0.40;;;;;;;23.38;71.86;101117.13;7386960;19;20149;-66
2022/07/31 10:34:33;;;;;;;1.77;0.40;;;;;;;23.40;71.89;101117.72;7383854;19;20049;-65
2022/07/31 10:37:24;;;;;;;1.02;0.45;;;;;;;23.42;71.61;101119.09;7385784;19;20035;-65
2022/07/31 10:40:38;;;;;;;2.25;0.52;;;;;;;23.47;71.82;101125.72;7383880;19;20014;-65
2022/07/31 10:43:18;;;;;;;1.83;0.40;;;;;;;23.50;71.25;101114.50;7385082;19;20081;-65
2022/07/31 10:45:52;;;;;;;0.93;0.40;;;;;;;23.52;71.26;101107.81;7386374;19;20007;-65
2022/07/31 10:48:20;;;;;;;1.25;0.30;;;;;;;23.53;71.42;101111.34;7384507;19;20022;-65
2022/07/31 10:50:59;;;;;;;2.20;0.40;;;;;;;23.54;71.20;101111.09;7384189;19;20413;-66
2022/07/31 10:53:26;;;;;;;1.35;0.30;;;;;;;23.56;70.51;101109.03;7385817;19;20011;-65
2022/07/31 10:56:13;;;;;;;2.45;0.60;;;;;;;23.56;70.89;101114.41;7385071;19;20153;-65
2022/07/31 10:58:50;;;;;;;0.80;0.30;;;;;;;23.57;71.31;101113.31;7384165;19;20571;-65
2022/07/31 11:01:18;;;;;;;3.08;0.40;;;;;;;23.59;70.90;101113.09;7384442;19;20376;-65
2022/07/31 11:03:47;;;;;;;1.33;0.40;;;;;;;23.60;70.78;101114.75;7382534;19;20651;-65
2022/07/31 11:06:15;;;;;;;1.50;0.40;;;;;;;23.60;70.73;101109.38;7384035;19;20024;-65
2022/07/31 11:08:47;;;;;;;3.83;0.50;;;;;;;23.63;70.41;101114.28;7383926;19;20014;-65
2022/07/31 11:11:14;;;;;;;1.27;0.40;;;;;;;23.66;70.90;101101.22;7384118;19;20015;-65
2022/07/31 11:13:51;;;;;;;3.08;0.35;;;;;;;23.70;70.52;101109.63;7384117;19;20018;-66
2022/07/31 11:16:18;;;;;;;1.50;0.40;;;;;;;23.70;70.42;101105.06;7384496;19;20490;-65
2022/07/31 11:19:15;;;;;;;1.25;0.40;;;;;;;23.70;70.46;101113.13;7381619;19;20348;-64
2022/07/31 11:21:42;;;;;;;1.10;0.38;;;;;;;23.73;70.26;101103.75;7383406;19;20019;-65
2022/07/31 11:24:22;;;;;;;2.85;0.40;;;;;;;23.74;70.57;101114.28;7385509;19;20374;-65
2022/07/31 11:26:51;;;;;;;1.25;0.35;;;;;;;23.73;70.24;101122.59;7383163;19;20007;-65
2022/07/31 11:29:28;;;;;;;1.23;0.57;;;;;;;23.72;70.87;101121.75;7382736;19;20022;-65
2022/07/31 11:32:16;;;;;;;0.75;0.32;;;;;;;23.73;70.98;101112.66;7385589;19;20021;-65
2022/07/31 11:34:56;;;;;;;1.42;0.40;;;;;;;23.73;71.44;101114.50;7382020;19;20015;-65
2022/07/31 11:37:27;;;;;;;1.23;0.30;;;;;;;23.76;72.97;101117.59;7383245;19;20018;-65